sensor_id;sensor_type;location;lat;lon;timestamp;P1;durP1;ratioP1;P2;durP2;ratioP2
4808;SDS011;2418;49.930;8.606;2023-04-06T00:00:14;4.60;;;4.30;;
4808;SDS011;2418;49.930;8.606;2023-04-06T00:02:40;4.90;;;4.50;;
4808;SDS011;2418;49.930;8.606;2023-04-06T00:05:06;4.40;;;4.20;;
4808;SDS011;2418;49.930;8.606;2023-04-06T00:07:33;4.85;;;4.63;;
4808;SDS011;2418;49.930;8.606;2023-04-06T00:09:59;4.83;;;4.43;;
4808;SDS011;2418;49.930;8.606;2023-04-06T00:12:25;4.60;;;4.20;;
4808;SDS011;2418;49.930;8.606;2023-04-06T00:14:51;5.00;;;4.57;;
4808;SDS011;2418;49.930;8.606;2023-04-06T00:17:17;5.10;;;4.70;;
4808;SDS011;2418;49.930;8.606;2023-04-06T00:19:43;4.63;;;4.43;;
4808;SDS011;2418;49.930;8.606;2023-04-06T00:22:09;5.22;;;4.50;;
4808;SDS011;2418;49.930;8.606;2023-04-06T00:24:35;6.88;;;4.80;;
4808;SDS011;2418;49.930;8.606;2023-04-06T00:27:01;5.33;;;4.83;;
4808;SDS011;2418;49.930;8.606;2023-04-06T00:29:27;5.40;;;5.10;;
4808;SDS011;2418;49.930;8.606;2023-04-06T00:31:53;4.93;;;4.53;;
4808;SDS011;2418;49.930;8.606;2023-04-06T00:34:19;5.70;;;4.60;;
4808;SDS011;2418;49.930;8.606;2023-04-06T00:36:45;5.18;;;4.75;;
4808;SDS011;2418;49.930;8.606;2023-04-06T00:39:11;5.50;;;4.45;;
4808;SDS011;2418;49.930;8.606;2023-04-06T00:41:37;6.30;;;4.93;;
4808;SDS011;2418;49.930;8.606;2023-04-06T00:44:04;5.28;;;4.88;;
4808;SDS011;2418;49.930;8.606;2023-04-06T00:46:30;5.85;;;5.35;;
4808;SDS011;2418;49.930;8.606;2023-04-06T00:48:56;5.30;;;5.00;;
4808;SDS011;2418;49.930;8.606;2023-04-06T00:51:22;6.00;;;4.60;;
4808;SDS011;2418;49.930;8.606;2023-04-06T00:53:48;5.87;;;5.07;;
4808;SDS011;2418;49.930;8.606;2023-04-06T00:56:14;5.30;;;4.80;;
4808;SDS011;2418;49.930;8.606;2023-04-06T00:58:40;5.50;;;5.13;;
4808;SDS011;2418;49.930;8.606;2023-04-06T01:01:06;5.88;;;4.70;;
4808;SDS011;2418;49.930;8.606;2023-04-06T01:03:32;5.00;;;4.60;;
4808;SDS011;2418;49.930;8.606;2023-04-06T01:05:58;4.90;;;4.70;;
4808;SDS011;2418;49.930;8.606;2023-04-06T01:08:24;5.28;;;4.88;;
4808;SDS011;2418;49.930;8.606;2023-04-06T01:10:50;5.30;;;4.90;;
4808;SDS011;2418;49.930;8.606;2023-04-06T01:13:16;8.80;;;5.50;;
4808;SDS011;2418;49.930;8.606;2023-04-06T01:15:42;5.35;;;4.95;;
4808;SDS011;2418;49.930;8.606;2023-04-06T01:18:08;5.07;;;4.67;;
4808;SDS011;2418;49.930;8.606;2023-04-06T01:20:37;5.20;;;4.90;;
4808;SDS011;2418;49.930;8.606;2023-04-06T01:23:03;5.20;;;4.70;;
4808;SDS011;2418;49.930;8.606;2023-04-06T01:25:29;5.40;;;5.10;;
4808;SDS011;2418;49.930;8.606;2023-04-06T01:27:55;4.53;;;4.13;;
4808;SDS011;2418;49.930;8.606;2023-04-06T01:30:21;5.33;;;4.57;;
4808;SDS011;2418;49.930;8.606;2023-04-06T01:32:47;4.82;;;4.53;;
4808;SDS011;2418;49.930;8.606;2023-04-06T01:35:13;5.07;;;4.68;;
4808;SDS011;2418;49.930;8.606;2023-04-06T01:37:41;5.25;;;4.95;;
4808;SDS011;2418;49.930;8.606;2023-04-06T01:40:07;7.20;;;4.90;;
4808;SDS011;2418;49.930;8.606;2023-04-06T01:42:33;5.00;;;4.70;;
4808;SDS011;2418;49.930;8.606;2023-04-06T01:44:59;6.20;;;5.60;;
4808;SDS011;2418;49.930;8.606;2023-04-06T01:47:25;5.30;;;4.90;;
4808;SDS011;2418;49.930;8.606;2023-04-06T01:49:52;6.05;;;5.65;;
4808;SDS011;2418;49.930;8.606;2023-04-06T01:52:18;5.20;;;4.90;;
4808;SDS011;2418;49.930;8.606;2023-04-06T01:54:44;5.30;;;4.80;;
4808;SDS011;2418;49.930;8.606;2023-04-06T01:57:10;5.90;;;5.30;;
4808;SDS011;2418;49.930;8.606;2023-04-06T01:59:36;5.30;;;5.10;;
4808;SDS011;2418;49.930;8.606;2023-04-06T02:02:02;5.63;;;5.30;;
4808;SDS011;2418;49.930;8.606;2023-04-06T02:04:28;5.80;;;5.40;;
4808;SDS011;2418;49.930;8.606;2023-04-06T02:06:54;5.60;;;5.40;;
4808;SDS011;2418;49.930;8.606;2023-04-06T02:09:20;5.50;;;5.10;;
4808;SDS011;2418;49.930;8.606;2023-04-06T02:11:46;5.40;;;5.00;;
4808;SDS011;2418;49.930;8.606;2023-04-06T02:14:12;5.30;;;4.90;;
4808;SDS011;2418;49.930;8.606;2023-04-06T02:16:38;6.93;;;6.22;;
4808;SDS011;2418;49.930;8.606;2023-04-06T02:19:04;5.20;;;4.90;;
4808;SDS011;2418;49.930;8.606;2023-04-06T02:21:30;5.50;;;4.88;;
4808;SDS011;2418;49.930;8.606;2023-04-06T02:23:56;5.15;;;4.85;;
4808;SDS011;2418;49.930;8.606;2023-04-06T02:26:22;6.47;;;5.07;;
4808;SDS011;2418;49.930;8.606;2023-04-06T02:28:48;12.93;;;5.70;;
4808;SDS011;2418;49.930;8.606;2023-04-06T02:31:14;5.53;;;5.03;;
4808;SDS011;2418;49.930;8.606;2023-04-06T02:33:41;6.00;;;5.13;;
4808;SDS011;2418;49.930;8.606;2023-04-06T02:36:06;7.45;;;5.22;;
4808;SDS011;2418;49.930;8.606;2023-04-06T02:38:33;6.78;;;5.88;;
4808;SDS011;2418;49.930;8.606;2023-04-06T02:41:00;6.00;;;5.50;;
4808;SDS011;2418;49.930;8.606;2023-04-06T02:43:26;6.20;;;5.70;;
4808;SDS011;2418;49.930;8.606;2023-04-06T02:45:51;6.60;;;5.90;;
4808;SDS011;2418;49.930;8.606;2023-04-06T02:48:17;6.03;;;5.53;;
4808;SDS011;2418;49.930;8.606;2023-04-06T02:50:43;6.60;;;6.00;;
4808;SDS011;2418;49.930;8.606;2023-04-06T02:53:09;7.03;;;6.33;;
4808;SDS011;2418;49.930;8.606;2023-04-06T02:55:35;8.52;;;5.70;;
4808;SDS011;2418;49.930;8.606;2023-04-06T02:58:01;6.18;;;5.60;;
4808;SDS011;2418;49.930;8.606;2023-04-06T03:00:27;6.77;;;6.07;;
4808;SDS011;2418;49.930;8.606;2023-04-06T03:02:53;6.18;;;5.57;;
4808;SDS011;2418;49.930;8.606;2023-04-06T03:05:20;6.70;;;6.10;;
4808;SDS011;2418;49.930;8.606;2023-04-06T03:07:45;5.70;;;5.40;;
4808;SDS011;2418;49.930;8.606;2023-04-06T03:10:11;5.70;;;5.30;;
4808;SDS011;2418;49.930;8.606;2023-04-06T03:12:37;7.43;;;5.78;;
4808;SDS011;2418;49.930;8.606;2023-04-06T03:15:04;6.13;;;5.53;;
4808;SDS011;2418;49.930;8.606;2023-04-06T03:17:30;6.20;;;5.80;;
4808;SDS011;2418;49.930;8.606;2023-04-06T03:19:56;6.55;;;6.05;;
4808;SDS011;2418;49.930;8.606;2023-04-06T03:22:22;5.75;;;5.25;;
4808;SDS011;2418;49.930;8.606;2023-04-06T03:24:48;5.85;;;5.45;;
4808;SDS011;2418;49.930;8.606;2023-04-06T03:27:14;6.13;;;5.72;;
4808;SDS011;2418;49.930;8.606;2023-04-06T03:29:40;7.20;;;6.50;;
4808;SDS011;2418;49.930;8.606;2023-04-06T03:32:06;6.47;;;6.07;;
4808;SDS011;2418;49.930;8.606;2023-04-06T03:34:32;7.28;;;6.57;;
4808;SDS011;2418;49.930;8.606;2023-04-06T03:36:59;6.28;;;5.78;;
4808;SDS011;2418;49.930;8.606;2023-04-06T03:39:25;6.32;;;5.97;;
4808;SDS011;2418;49.930;8.606;2023-04-06T03:41:51;6.97;;;5.50;;
4808;SDS011;2418;49.930;8.606;2023-04-06T03:44:17;6.78;;;5.78;;
4808;SDS011;2418;49.930;8.606;2023-04-06T03:46:43;7.75;;;5.85;;
4808;SDS011;2418;49.930;8.606;2023-04-06T03:49:09;6.68;;;6.07;;
4808;SDS011;2418;49.930;8.606;2023-04-06T03:51:35;7.03;;;5.90;;
4808;SDS011;2418;49.930;8.606;2023-04-06T03:54:01;6.47;;;6.10;;
4808;SDS011;2418;49.930;8.606;2023-04-06T03:56:27;6.47;;;5.87;;
4808;SDS011;2418;49.930;8.606;2023-04-06T03:58:53;6.88;;;6.28;;
4808;SDS011;2418;49.930;8.606;2023-04-06T04:01:19;5.60;;;5.28;;
4808;SDS011;2418;49.930;8.606;2023-04-06T04:03:45;6.60;;;6.20;;
4808;SDS011;2418;49.930;8.606;2023-04-06T04:06:11;5.95;;;5.65;;
4808;SDS011;2418;49.930;8.606;2023-04-06T04:08:37;6.70;;;6.00;;
4808;SDS011;2418;49.930;8.606;2023-04-06T04:11:03;7.03;;;6.45;;
4808;SDS011;2418;49.930;8.606;2023-04-06T04:13:29;6.80;;;6.20;;
4808;SDS011;2418;49.930;8.606;2023-04-06T04:15:55;6.88;;;6.30;;
4808;SDS011;2418;49.930;8.606;2023-04-06T04:18:21;7.18;;;6.47;;
4808;SDS011;2418;49.930;8.606;2023-04-06T04:20:47;6.67;;;6.07;;
4808;SDS011;2418;49.930;8.606;2023-04-06T04:23:13;6.82;;;6.22;;
4808;SDS011;2418;49.930;8.606;2023-04-06T04:25:39;7.03;;;5.78;;
4808;SDS011;2418;49.930;8.606;2023-04-06T04:28:05;7.17;;;5.83;;
4808;SDS011;2418;49.930;8.606;2023-04-06T04:30:31;5.88;;;5.57;;
4808;SDS011;2418;49.930;8.606;2023-04-06T04:32:57;11.77;;;6.15;;
4808;SDS011;2418;49.930;8.606;2023-04-06T04:35:23;11.60;;;5.80;;
4808;SDS011;2418;49.930;8.606;2023-04-06T04:37:49;7.07;;;6.47;;
4808;SDS011;2418;49.930;8.606;2023-04-06T04:40:15;7.60;;;6.90;;
4808;SDS011;2418;49.930;8.606;2023-04-06T04:42:41;8.93;;;7.05;;
4808;SDS011;2418;49.930;8.606;2023-04-06T04:45:07;7.05;;;6.45;;
4808;SDS011;2418;49.930;8.606;2023-04-06T04:47:33;6.93;;;6.20;;
4808;SDS011;2418;49.930;8.606;2023-04-06T04:49:59;6.85;;;6.45;;
4808;SDS011;2418;49.930;8.606;2023-04-06T04:52:25;11.85;;;6.78;;
4808;SDS011;2418;49.930;8.606;2023-04-06T04:54:51;7.28;;;6.53;;
4808;SDS011;2418;49.930;8.606;2023-04-06T04:57:17;6.50;;;6.00;;
4808;SDS011;2418;49.930;8.606;2023-04-06T04:59:43;6.78;;;6.18;;
4808;SDS011;2418;49.930;8.606;2023-04-06T05:02:09;10.50;;;7.40;;
4808;SDS011;2418;49.930;8.606;2023-04-06T05:04:35;7.15;;;6.60;;
4808;SDS011;2418;49.930;8.606;2023-04-06T05:07:02;8.30;;;7.28;;
4808;SDS011;2418;49.930;8.606;2023-04-06T05:09:29;8.32;;;7.45;;
4808;SDS011;2418;49.930;8.606;2023-04-06T05:11:56;8.73;;;7.97;;
4808;SDS011;2418;49.930;8.606;2023-04-06T05:14:22;11.35;;;7.07;;
4808;SDS011;2418;49.930;8.606;2023-04-06T05:16:48;21.35;;;7.47;;
4808;SDS011;2418;49.930;8.606;2023-04-06T05:19:14;10.82;;;6.90;;
4808;SDS011;2418;49.930;8.606;2023-04-06T05:21:40;14.52;;;7.20;;
4808;SDS011;2418;49.930;8.606;2023-04-06T05:24:06;11.37;;;7.27;;
4808;SDS011;2418;49.930;8.606;2023-04-06T05:26:33;20.20;;;7.30;;
4808;SDS011;2418;49.930;8.606;2023-04-06T05:28:59;10.98;;;7.57;;
4808;SDS011;2418;49.930;8.606;2023-04-06T05:31:25;13.90;;;7.90;;
4808;SDS011;2418;49.930;8.606;2023-04-06T05:33:51;17.00;;;7.60;;
4808;SDS011;2418;49.930;8.606;2023-04-06T05:36:17;20.35;;;7.90;;
4808;SDS011;2418;49.930;8.606;2023-04-06T05:38:43;15.03;;;7.57;;
4808;SDS011;2418;49.930;8.606;2023-04-06T05:41:09;25.83;;;7.82;;
4808;SDS011;2418;49.930;8.606;2023-04-06T05:43:35;21.27;;;7.38;;
4808;SDS011;2418;49.930;8.606;2023-04-06T05:46:01;11.95;;;6.97;;
4808;SDS011;2418;49.930;8.606;2023-04-06T05:48:27;8.95;;;7.20;;
4808;SDS011;2418;49.930;8.606;2023-04-06T05:50:53;9.40;;;7.50;;
4808;SDS011;2418;49.930;8.606;2023-04-06T05:53:19;9.65;;;7.68;;
4808;SDS011;2418;49.930;8.606;2023-04-06T05:55:46;15.85;;;8.00;;
4808;SDS011;2418;49.930;8.606;2023-04-06T05:58:12;10.63;;;8.02;;
4808;SDS011;2418;49.930;8.606;2023-04-06T06:00:38;14.02;;;8.48;;
4808;SDS011;2418;49.930;8.606;2023-04-06T06:03:04;7.78;;;7.05;;
4808;SDS011;2418;49.930;8.606;2023-04-06T06:05:30;10.10;;;6.80;;
4808;SDS011;2418;49.930;8.606;2023-04-06T06:07:56;11.07;;;6.75;;
4808;SDS011;2418;49.930;8.606;2023-04-06T06:10:22;10.52;;;7.68;;
4808;SDS011;2418;49.930;8.606;2023-04-06T06:12:48;9.40;;;7.27;;
4808;SDS011;2418;49.930;8.606;2023-04-06T06:15:15;13.20;;;8.18;;
4808;SDS011;2418;49.930;8.606;2023-04-06T06:17:41;8.32;;;7.25;;
4808;SDS011;2418;49.930;8.606;2023-04-06T06:20:07;17.70;;;8.50;;
4808;SDS011;2418;49.930;8.606;2023-04-06T06:22:33;10.95;;;8.38;;
4808;SDS011;2418;49.930;8.606;2023-04-06T06:24:59;9.80;;;7.57;;
4808;SDS011;2418;49.930;8.606;2023-04-06T06:27:25;9.32;;;8.35;;
4808;SDS011;2418;49.930;8.606;2023-04-06T06:29:51;12.70;;;7.97;;
4808;SDS011;2418;49.930;8.606;2023-04-06T06:32:17;11.25;;;7.60;;
4808;SDS011;2418;49.930;8.606;2023-04-06T06:34:43;14.50;;;8.40;;
4808;SDS011;2418;49.930;8.606;2023-04-06T06:37:09;12.93;;;7.95;;
4808;SDS011;2418;49.930;8.606;2023-04-06T06:39:35;14.90;;;8.43;;
4808;SDS011;2418;49.930;8.606;2023-04-06T06:42:01;14.63;;;9.23;;
4808;SDS011;2418;49.930;8.606;2023-04-06T06:44:27;12.90;;;8.68;;
4808;SDS011;2418;49.930;8.606;2023-04-06T06:46:53;13.20;;;9.10;;
4808;SDS011;2418;49.930;8.606;2023-04-06T06:49:19;21.33;;;10.10;;
4808;SDS011;2418;49.930;8.606;2023-04-06T06:51:45;12.32;;;9.00;;
4808;SDS011;2418;49.930;8.606;2023-04-06T06:54:11;14.55;;;9.82;;
4808;SDS011;2418;49.930;8.606;2023-04-06T06:56:37;16.67;;;10.23;;
4808;SDS011;2418;49.930;8.606;2023-04-06T06:59:04;11.68;;;9.65;;
4808;SDS011;2418;49.930;8.606;2023-04-06T07:01:31;14.35;;;10.70;;
4808;SDS011;2418;49.930;8.606;2023-04-06T07:03:58;16.20;;;10.73;;
4808;SDS011;2418;49.930;8.606;2023-04-06T07:06:24;15.57;;;11.23;;
4808;SDS011;2418;49.930;8.606;2023-04-06T07:08:50;14.75;;;11.43;;
4808;SDS011;2418;49.930;8.606;2023-04-06T07:11:16;12.32;;;10.57;;
4808;SDS011;2418;49.930;8.606;2023-04-06T07:13:42;12.70;;;10.73;;
4808;SDS011;2418;49.930;8.606;2023-04-06T07:16:08;20.60;;;10.85;;
4808;SDS011;2418;49.930;8.606;2023-04-06T07:18:34;12.90;;;10.80;;
4808;SDS011;2418;49.930;8.606;2023-04-06T07:21:00;12.95;;;11.13;;
4808;SDS011;2418;49.930;8.606;2023-04-06T07:23:26;15.02;;;10.98;;
4808;SDS011;2418;49.930;8.606;2023-04-06T07:25:52;19.42;;;11.38;;
4808;SDS011;2418;49.930;8.606;2023-04-06T07:28:19;17.40;;;11.20;;
4808;SDS011;2418;49.930;8.606;2023-04-06T07:30:45;14.00;;;11.38;;
4808;SDS011;2418;49.930;8.606;2023-04-06T07:33:11;13.23;;;10.95;;
4808;SDS011;2418;49.930;8.606;2023-04-06T07:35:37;14.52;;;10.77;;
4808;SDS011;2418;49.930;8.606;2023-04-06T07:38:04;16.00;;;11.18;;
4808;SDS011;2418;49.930;8.606;2023-04-06T07:40:30;15.18;;;10.70;;
4808;SDS011;2418;49.930;8.606;2023-04-06T07:42:57;14.98;;;10.70;;
4808;SDS011;2418;49.930;8.606;2023-04-06T07:45:23;17.02;;;10.95;;
4808;SDS011;2418;49.930;8.606;2023-04-06T07:47:49;11.07;;;10.05;;
4808;SDS011;2418;49.930;8.606;2023-04-06T07:50:15;13.52;;;11.35;;
4808;SDS011;2418;49.930;8.606;2023-04-06T07:52:42;11.20;;;10.10;;
4808;SDS011;2418;49.930;8.606;2023-04-06T07:55:08;15.40;;;11.02;;
4808;SDS011;2418;49.930;8.606;2023-04-06T07:57:34;11.77;;;10.05;;
4808;SDS011;2418;49.930;8.606;2023-04-06T08:00:00;13.25;;;10.10;;
4808;SDS011;2418;49.930;8.606;2023-04-06T08:02:26;13.57;;;9.68;;
4808;SDS011;2418;49.930;8.606;2023-04-06T08:04:52;16.33;;;9.80;;
4808;SDS011;2418;49.930;8.606;2023-04-06T08:07:18;15.40;;;10.13;;
4808;SDS011;2418;49.930;8.606;2023-04-06T08:09:44;14.25;;;10.35;;
4808;SDS011;2418;49.930;8.606;2023-04-06T08:12:10;10.27;;;9.32;;
4808;SDS011;2418;49.930;8.606;2023-04-06T08:14:36;11.30;;;10.20;;
4808;SDS011;2418;49.930;8.606;2023-04-06T08:17:02;11.35;;;10.25;;
4808;SDS011;2418;49.930;8.606;2023-04-06T08:19:27;11.73;;;9.98;;
4808;SDS011;2418;49.930;8.606;2023-04-06T08:21:53;13.88;;;10.43;;
4808;SDS011;2418;49.930;8.606;2023-04-06T08:24:19;13.32;;;10.52;;
4808;SDS011;2418;49.930;8.606;2023-04-06T08:26:45;12.33;;;10.40;;
4808;SDS011;2418;49.930;8.606;2023-04-06T08:29:11;13.70;;;10.50;;
4808;SDS011;2418;49.930;8.606;2023-04-06T08:31:37;17.13;;;10.63;;
4808;SDS011;2418;49.930;8.606;2023-04-06T08:34:03;12.95;;;10.30;;
4808;SDS011;2418;49.930;8.606;2023-04-06T08:36:30;10.60;;;9.60;;
4808;SDS011;2418;49.930;8.606;2023-04-06T08:38:56;12.82;;;10.98;;
4808;SDS011;2418;49.930;8.606;2023-04-06T08:41:24;13.82;;;11.35;;
4808;SDS011;2418;49.930;8.606;2023-04-06T08:43:52;10.85;;;9.80;;
4808;SDS011;2418;49.930;8.606;2023-04-06T08:46:20;13.95;;;10.88;;
4808;SDS011;2418;49.930;8.606;2023-04-06T08:48:46;13.70;;;11.15;;
4808;SDS011;2418;49.930;8.606;2023-04-06T08:51:14;18.17;;;10.07;;
4808;SDS011;2418;49.930;8.606;2023-04-06T08:53:40;14.70;;;10.77;;
4808;SDS011;2418;49.930;8.606;2023-04-06T08:56:07;13.43;;;10.18;;
4808;SDS011;2418;49.930;8.606;2023-04-06T08:58:34;15.43;;;10.47;;
4808;SDS011;2418;49.930;8.606;2023-04-06T09:01:02;13.13;;;11.45;;
4808;SDS011;2418;49.930;8.606;2023-04-06T09:03:31;13.00;;;10.57;;
4808;SDS011;2418;49.930;8.606;2023-04-06T09:06:00;11.55;;;10.55;;
4808;SDS011;2418;49.930;8.606;2023-04-06T09:08:26;17.73;;;10.50;;
4808;SDS011;2418;49.930;8.606;2023-04-06T09:10:52;12.15;;;10.40;;
4808;SDS011;2418;49.930;8.606;2023-04-06T09:13:17;10.57;;;9.50;;
4808;SDS011;2418;49.930;8.606;2023-04-06T09:15:43;13.27;;;9.80;;
4808;SDS011;2418;49.930;8.606;2023-04-06T09:18:09;13.13;;;10.48;;
4808;SDS011;2418;49.930;8.606;2023-04-06T09:20:35;11.50;;;9.50;;
4808;SDS011;2418;49.930;8.606;2023-04-06T09:23:01;9.80;;;8.80;;
4808;SDS011;2418;49.930;8.606;2023-04-06T09:25:27;12.47;;;10.60;;
4808;SDS011;2418;49.930;8.606;2023-04-06T09:28:00;13.60;;;10.32;;
4808;SDS011;2418;49.930;8.606;2023-04-06T09:30:26;17.42;;;9.40;;
4808;SDS011;2418;49.930;8.606;2023-04-06T09:32:53;10.67;;;9.67;;
4808;SDS011;2418;49.930;8.606;2023-04-06T09:35:19;14.80;;;11.37;;
4808;SDS011;2418;49.930;8.606;2023-04-06T09:37:47;12.10;;;10.80;;
4808;SDS011;2418;49.930;8.606;2023-04-06T09:40:13;11.10;;;9.90;;
4808;SDS011;2418;49.930;8.606;2023-04-06T09:42:44;12.60;;;9.30;;
4808;SDS011;2418;49.930;8.606;2023-04-06T09:45:11;13.75;;;8.48;;
4808;SDS011;2418;49.930;8.606;2023-04-06T09:47:37;17.33;;;10.70;;
4808;SDS011;2418;49.930;8.606;2023-04-06T09:50:05;13.00;;;10.45;;
4808;SDS011;2418;49.930;8.606;2023-04-06T09:52:33;14.23;;;11.20;;
4808;SDS011;2418;49.930;8.606;2023-04-06T09:55:01;17.35;;;11.15;;
4808;SDS011;2418;49.930;8.606;2023-04-06T10:00:03;13.10;;;11.70;;
4808;SDS011;2418;49.930;8.606;2023-04-06T10:02:56;15.73;;;11.38;;
4808;SDS011;2418;49.930;8.606;2023-04-06T10:05:36;15.75;;;9.90;;
4808;SDS011;2418;49.930;8.606;2023-04-06T10:08:06;14.55;;;10.50;;
4808;SDS011;2418;49.930;8.606;2023-04-06T10:10:32;21.05;;;11.35;;
4808;SDS011;2418;49.930;8.606;2023-04-06T10:12:58;16.20;;;10.93;;
4808;SDS011;2418;49.930;8.606;2023-04-06T10:15:24;12.00;;;10.70;;
4808;SDS011;2418;49.930;8.606;2023-04-06T10:17:52;14.50;;;10.50;;
4808;SDS011;2418;49.930;8.606;2023-04-06T10:20:29;15.75;;;11.10;;
4808;SDS011;2418;49.930;8.606;2023-04-06T10:23:08;15.55;;;11.52;;
4808;SDS011;2418;49.930;8.606;2023-04-06T10:25:34;12.35;;;10.05;;
4808;SDS011;2418;49.930;8.606;2023-04-06T10:28:04;13.23;;;10.00;;
4808;SDS011;2418;49.930;8.606;2023-04-06T10:30:31;14.57;;;10.10;;
4808;SDS011;2418;49.930;8.606;2023-04-06T10:32:57;13.75;;;10.02;;
4808;SDS011;2418;49.930;8.606;2023-04-06T10:35:23;15.83;;;10.70;;
4808;SDS011;2418;49.930;8.606;2023-04-06T10:38:03;17.40;;;10.40;;
4808;SDS011;2418;49.930;8.606;2023-04-06T10:40:30;15.18;;;9.82;;
4808;SDS011;2418;49.930;8.606;2023-04-06T10:43:09;12.13;;;10.37;;
4808;SDS011;2418;49.930;8.606;2023-04-06T10:45:36;13.10;;;9.95;;
4808;SDS011;2418;49.930;8.606;2023-04-06T10:48:12;14.10;;;9.32;;
4808;SDS011;2418;49.930;8.606;2023-04-06T10:50:39;13.45;;;10.43;;
4808;SDS011;2418;49.930;8.606;2023-04-06T10:53:05;18.10;;;11.13;;
4808;SDS011;2418;49.930;8.606;2023-04-06T10:55:31;14.90;;;11.45;;
4808;SDS011;2418;49.930;8.606;2023-04-06T10:57:57;10.90;;;9.10;;
4808;SDS011;2418;49.930;8.606;2023-04-06T11:00:23;13.17;;;9.63;;
4808;SDS011;2418;49.930;8.606;2023-04-06T11:02:50;10.93;;;9.30;;
4808;SDS011;2418;49.930;8.606;2023-04-06T11:05:16;11.05;;;9.85;;
4808;SDS011;2418;49.930;8.606;2023-04-06T11:07:42;12.88;;;10.68;;
4808;SDS011;2418;49.930;8.606;2023-04-06T11:10:09;12.90;;;9.90;;
4808;SDS011;2418;49.930;8.606;2023-04-06T11:12:35;13.43;;;10.13;;
4808;SDS011;2418;49.930;8.606;2023-04-06T11:15:02;16.50;;;11.50;;
4808;SDS011;2418;49.930;8.606;2023-04-06T11:17:31;12.07;;;10.10;;
4808;SDS011;2418;49.930;8.606;2023-04-06T11:19:57;17.05;;;10.30;;
4808;SDS011;2418;49.930;8.606;2023-04-06T11:22:24;13.70;;;10.23;;
4808;SDS011;2418;49.930;8.606;2023-04-06T11:24:50;14.55;;;10.65;;
4808;SDS011;2418;49.930;8.606;2023-04-06T11:27:17;17.10;;;11.52;;
4808;SDS011;2418;49.930;8.606;2023-04-06T11:29:43;11.75;;;10.18;;
4808;SDS011;2418;49.930;8.606;2023-04-06T11:32:19;18.35;;;9.70;;
4808;SDS011;2418;49.930;8.606;2023-04-06T11:34:46;10.45;;;8.90;;
4808;SDS011;2418;49.930;8.606;2023-04-06T11:37:12;15.43;;;9.30;;
4808;SDS011;2418;49.930;8.606;2023-04-06T11:39:39;17.52;;;9.82;;
4808;SDS011;2418;49.930;8.606;2023-04-06T11:42:06;16.85;;;10.35;;
4808;SDS011;2418;49.930;8.606;2023-04-06T11:46:57;14.82;;;10.38;;
4808;SDS011;2418;49.930;8.606;2023-04-06T11:49:27;14.15;;;9.77;;
4808;SDS011;2418;49.930;8.606;2023-04-06T11:51:54;15.40;;;10.13;;
4808;SDS011;2418;49.930;8.606;2023-04-06T11:57:15;12.73;;;10.27;;
4808;SDS011;2418;49.930;8.606;2023-04-06T11:59:41;16.85;;;10.63;;
4808;SDS011;2418;49.930;8.606;2023-04-06T12:02:07;14.40;;;11.60;;
4808;SDS011;2418;49.930;8.606;2023-04-06T12:04:33;11.90;;;9.63;;
4808;SDS011;2418;49.930;8.606;2023-04-06T12:07:00;15.25;;;10.77;;
4808;SDS011;2418;49.930;8.606;2023-04-06T12:09:26;12.20;;;10.00;;
4808;SDS011;2418;49.930;8.606;2023-04-06T12:11:52;13.07;;;10.82;;
4808;SDS011;2418;49.930;8.606;2023-04-06T12:14:18;15.40;;;9.90;;
4808;SDS011;2418;49.930;8.606;2023-04-06T12:16:44;16.20;;;10.40;;
4808;SDS011;2418;49.930;8.606;2023-04-06T12:19:10;12.70;;;10.60;;
4808;SDS011;2418;49.930;8.606;2023-04-06T12:21:36;11.25;;;10.15;;
4808;SDS011;2418;49.930;8.606;2023-04-06T12:24:03;13.15;;;9.70;;
4808;SDS011;2418;49.930;8.606;2023-04-06T12:26:29;17.77;;;10.47;;
4808;SDS011;2418;49.930;8.606;2023-04-06T12:28:56;12.98;;;10.50;;
4808;SDS011;2418;49.930;8.606;2023-04-06T12:31:24;12.32;;;9.20;;
4808;SDS011;2418;49.930;8.606;2023-04-06T12:33:50;10.18;;;8.02;;
4808;SDS011;2418;49.930;8.606;2023-04-06T12:36:17;11.98;;;9.50;;
4808;SDS011;2418;49.930;8.606;2023-04-06T12:38:44;12.07;;;9.60;;
4808;SDS011;2418;49.930;8.606;2023-04-06T12:41:11;10.90;;;9.20;;
4808;SDS011;2418;49.930;8.606;2023-04-06T12:43:37;11.38;;;8.90;;
4808;SDS011;2418;49.930;8.606;2023-04-06T12:46:03;13.75;;;9.88;;
4808;SDS011;2418;49.930;8.606;2023-04-06T12:48:29;10.80;;;9.70;;
4808;SDS011;2418;49.930;8.606;2023-04-06T12:50:55;11.63;;;10.52;;
4808;SDS011;2418;49.930;8.606;2023-04-06T12:53:21;10.73;;;9.70;;
4808;SDS011;2418;49.930;8.606;2023-04-06T12:55:47;10.00;;;9.03;;
4808;SDS011;2418;49.930;8.606;2023-04-06T12:58:13;10.82;;;8.25;;
4808;SDS011;2418;49.930;8.606;2023-04-06T13:00:40;9.65;;;8.68;;
4808;SDS011;2418;49.930;8.606;2023-04-06T13:03:06;8.30;;;7.70;;
4808;SDS011;2418;49.930;8.606;2023-04-06T13:05:32;7.43;;;6.93;;
4808;SDS011;2418;49.930;8.606;2023-04-06T13:07:58;11.65;;;9.35;;
4808;SDS011;2418;49.930;8.606;2023-04-06T13:10:25;15.57;;;8.38;;
4808;SDS011;2418;49.930;8.606;2023-04-06T13:12:53;10.30;;;9.23;;
4808;SDS011;2418;49.930;8.606;2023-04-06T13:15:19;15.73;;;9.32;;
4808;SDS011;2418;49.930;8.606;2023-04-06T13:17:45;12.88;;;9.80;;
4808;SDS011;2418;49.930;8.606;2023-04-06T13:20:11;12.70;;;9.45;;
4808;SDS011;2418;49.930;8.606;2023-04-06T13:22:37;12.50;;;11.20;;
4808;SDS011;2418;49.930;8.606;2023-04-06T13:25:05;14.60;;;12.45;;
4808;SDS011;2418;49.930;8.606;2023-04-06T13:30:04;16.20;;;10.47;;
4808;SDS011;2418;49.930;8.606;2023-04-06T13:32:32;17.92;;;12.77;;
4808;SDS011;2418;49.930;8.606;2023-04-06T13:34:58;14.15;;;10.07;;
4808;SDS011;2418;49.930;8.606;2023-04-06T13:37:25;11.30;;;9.70;;
4808;SDS011;2418;49.930;8.606;2023-04-06T13:39:52;16.30;;;13.43;;
4808;SDS011;2418;49.930;8.606;2023-04-06T13:42:18;12.75;;;10.63;;
4808;SDS011;2418;49.930;8.606;2023-04-06T13:44:44;9.93;;;8.55;;
4808;SDS011;2418;49.930;8.606;2023-04-06T13:47:11;10.35;;;9.00;;
4808;SDS011;2418;49.930;8.606;2023-04-06T13:49:37;11.00;;;9.27;;
4808;SDS011;2418;49.930;8.606;2023-04-06T13:52:03;11.57;;;9.73;;
4808;SDS011;2418;49.930;8.606;2023-04-06T13:54:29;14.95;;;13.38;;
4808;SDS011;2418;49.930;8.606;2023-04-06T13:56:56;15.85;;;13.27;;
4808;SDS011;2418;49.930;8.606;2023-04-06T13:59:22;12.10;;;9.75;;
4808;SDS011;2418;49.930;8.606;2023-04-06T14:01:48;9.27;;;7.80;;
4808;SDS011;2418;49.930;8.606;2023-04-06T14:04:15;9.33;;;8.43;;
4808;SDS011;2418;49.930;8.606;2023-04-06T14:06:41;11.70;;;9.68;;
4808;SDS011;2418;49.930;8.606;2023-04-06T14:09:08;12.13;;;10.30;;
4808;SDS011;2418;49.930;8.606;2023-04-06T14:11:34;14.23;;;11.18;;
4808;SDS011;2418;49.930;8.606;2023-04-06T14:14:01;12.77;;;9.70;;
4808;SDS011;2418;49.930;8.606;2023-04-06T14:16:27;10.77;;;9.63;;
4808;SDS011;2418;49.930;8.606;2023-04-06T14:18:53;12.10;;;10.10;;
4808;SDS011;2418;49.930;8.606;2023-04-06T14:21:20;10.35;;;9.35;;
4808;SDS011;2418;49.930;8.606;2023-04-06T14:23:46;9.15;;;8.40;;
4808;SDS011;2418;49.930;8.606;2023-04-06T14:26:12;14.05;;;11.93;;
4808;SDS011;2418;49.930;8.606;2023-04-06T14:28:38;11.70;;;9.50;;
4808;SDS011;2418;49.930;8.606;2023-04-06T14:31:11;16.13;;;11.50;;
4808;SDS011;2418;49.930;8.606;2023-04-06T14:33:38;10.73;;;9.82;;
4808;SDS011;2418;49.930;8.606;2023-04-06T14:36:04;13.00;;;11.50;;
4808;SDS011;2418;49.930;8.606;2023-04-06T14:38:31;11.40;;;9.83;;
4808;SDS011;2418;49.930;8.606;2023-04-06T14:41:00;10.60;;;9.52;;
4808;SDS011;2418;49.930;8.606;2023-04-06T14:43:27;9.85;;;8.95;;
4808;SDS011;2418;49.930;8.606;2023-04-06T14:45:53;14.50;;;10.70;;
4808;SDS011;2418;49.930;8.606;2023-04-06T14:48:19;10.23;;;9.18;;
4808;SDS011;2418;49.930;8.606;2023-04-06T14:50:55;10.02;;;9.02;;
4808;SDS011;2418;49.930;8.606;2023-04-06T14:53:21;12.43;;;9.85;;
4808;SDS011;2418;49.930;8.606;2023-04-06T14:55:48;11.70;;;10.50;;
4808;SDS011;2418;49.930;8.606;2023-04-06T14:58:17;12.35;;;11.15;;
4808;SDS011;2418;49.930;8.606;2023-04-06T15:00:44;11.18;;;9.98;;
4808;SDS011;2418;49.930;8.606;2023-04-06T15:03:10;10.00;;;9.00;;
4808;SDS011;2418;49.930;8.606;2023-04-06T15:05:36;11.20;;;9.98;;
4808;SDS011;2418;49.930;8.606;2023-04-06T15:08:02;14.30;;;10.30;;